createdAt,value
2022-08-05T00:02:22.192Z,2.45
2022-08-05T00:04:55.306Z,2.50
2022-08-05T00:07:59.440Z,2.30
2022-08-05T00:10:11.306Z,1.92
2022-08-05T00:12:56.101Z,2.10
2022-08-05T00:15:55.476Z,2.58
2022-08-05T00:18:21.387Z,2.60
2022-08-05T00:20:50.671Z,2.20
2022-08-05T00:23:44.617Z,2.35
2022-08-05T00:26:07.112Z,2.40
2022-08-05T00:28:35.314Z,2.22
2022-08-05T00:31:04.425Z,2.90
2022-08-05T00:34:53.949Z,2.47
2022-08-05T00:37:10.574Z,2.67
2022-08-05T00:39:13.782Z,1.90
2022-08-05T00:41:54.876Z,2.90
2022-08-05T00:44:30.378Z,3.00
2022-08-05T00:47:03.730Z,3.95
2022-08-05T00:49:32.445Z,3.13
2022-08-05T00:52:00.594Z,2.65
2022-08-05T00:54:28.141Z,3.10
2022-08-05T00:56:57.585Z,3.30
2022-08-05T00:59:24.790Z,2.60
2022-08-05T01:01:52.155Z,2.58
2022-08-05T01:04:20.280Z,2.50
2022-08-05T01:06:54.963Z,2.40
2022-08-05T01:09:22.857Z,2.40
2022-08-05T01:11:53.610Z,3.05
2022-08-05T01:14:29.885Z,2.28
2022-08-05T01:17:13.611Z,3.03
2022-08-05T01:20:28.303Z,2.55
2022-08-05T01:23:23.375Z,2.95
2022-08-05T01:26:37.678Z,2.42
2022-08-05T01:29:13.622Z,2.85
2022-08-05T01:31:44.728Z,2.88
2022-08-05T01:34:44.210Z,2.67
2022-08-05T01:37:24.741Z,2.22
2022-08-05T01:39:55.034Z,2.67
2022-08-05T01:42:28.952Z,2.85
2022-08-05T01:45:02.243Z,1.90
2022-08-05T01:47:39.337Z,2.92
2022-08-05T01:50:15.225Z,2.80
2022-08-05T01:52:49.753Z,3.05
2022-08-05T01:55:22.084Z,3.40
2022-08-05T01:58:12.769Z,3.83
2022-08-05T02:00:44.295Z,2.90
2022-08-05T02:03:31.951Z,2.70
2022-08-05T02:06:33.408Z,2.30
2022-08-05T02:08:58.180Z,2.63
2022-08-05T02:11:33.869Z,3.53
2022-08-05T02:14:12.623Z,3.28
2022-08-05T02:16:47.298Z,2.67
2022-08-05T02:19:46.983Z,3.60
2022-08-05T02:22:29.992Z,2.95
2022-08-05T02:25:08.552Z,3.95
2022-08-05T02:27:59.381Z,4.07
2022-08-05T02:30:32.326Z,4.80
2022-08-05T02:33:03.681Z,5.30
2022-08-05T02:35:37.594Z,5.47
2022-08-05T02:38:19.376Z,4.43
2022-08-05T02:40:47.571Z,5.40
2022-08-05T02:43:16.693Z,5.25
2022-08-05T02:45:51.889Z,5.63
2022-08-05T02:48:29.356Z,5.47
2022-08-05T02:51:04.111Z,5.00
2022-08-05T02:53:39.528Z,5.40
2022-08-05T02:56:11.253Z,5.05
2022-08-05T02:58:44.341Z,5.97
2022-08-05T03:01:25.527Z,6.72
2022-08-05T03:04:14.138Z,5.47
2022-08-05T03:06:57.503Z,5.47
2022-08-05T03:09:37.510Z,5.90
2022-08-05T03:12:10.728Z,5.40
2022-08-05T03:14:45.841Z,6.15
2022-08-05T03:17:13.543Z,5.63
2022-08-05T03:19:41.954Z,5.97
2022-08-05T03:22:16.033Z,7.03
2022-08-05T03:24:47.308Z,6.35
2022-08-05T03:27:20.098Z,6.70
2022-08-05T03:30:07.394Z,7.38
2022-08-05T03:32:35.035Z,7.05
2022-08-05T03:35:04.608Z,6.70
2022-08-05T03:37:46.281Z,6.57
2022-08-05T03:40:15.442Z,6.53
2022-08-05T03:42:59.289Z,6.22
2022-08-05T03:45:29.663Z,6.45
2022-08-05T03:48:21.923Z,6.97
2022-08-05T03:52:37.527Z,7.93
2022-08-05T03:55:53.957Z,6.95
2022-08-05T03:57:16.468Z,7.97
2022-08-05T03:59:54.939Z,6.57
2022-08-05T04:02:38.666Z,7.95
2022-08-05T04:05:10.222Z,7.88
2022-08-05T04:07:58.378Z,8.38
2022-08-05T04:10:30.898Z,6.93
2022-08-05T04:13:03.419Z,8.40
2022-08-05T04:15:32.962Z,8.40
2022-08-05T04:18:09.735Z,8.95
2022-08-05T04:20:37.685Z,8.43
2022-08-05T04:23:15.893Z,9.38
2022-08-05T04:25:57.478Z,8.30
2022-08-05T04:28:31.011Z,7.70
2022-08-05T04:31:01.162Z,9.23
2022-08-05T04:34:17.622Z,9.40
2022-08-05T04:36:44.930Z,8.57
2022-08-05T04:39:04.031Z,10.90
2022-08-05T04:41:37.733Z,9.60
2022-08-05T04:44:09.232Z,11.50
2022-08-05T04:46:38.393Z,10.85
2022-08-05T04:49:12.434Z,8.90
2022-08-05T04:51:44.036Z,11.13
2022-08-05T04:54:12.117Z,11.40
2022-08-05T04:56:39.618Z,11.00
2022-08-05T04:59:22.129Z,14.50
2022-08-05T05:02:08.387Z,11.68
2022-08-05T05:04:43.968Z,10.90
2022-08-05T05:07:17.121Z,10.18
2022-08-05T05:09:45.463Z,11.90
2022-08-05T05:12:12.688Z,11.88
2022-08-05T05:14:49.200Z,14.23
2022-08-05T05:17:23.354Z,14.27
2022-08-05T05:19:56.484Z,14.77
2022-08-05T05:22:26.476Z,15.65
2022-08-05T05:24:57.052Z,15.07
2022-08-05T05:27:41.178Z,17.08
2022-08-05T05:30:15.392Z,18.75
2022-08-05T05:32:56.745Z,16.65
2022-08-05T05:35:24.086Z,17.98
2022-08-05T05:37:59.661Z,17.23
2022-08-05T05:40:29.913Z,20.35
2022-08-05T05:42:57.570Z,19.58
2022-08-05T05:45:25.019Z,16.95
2022-08-05T05:48:06.810Z,18.40
2022-08-05T05:50:40.987Z,17.30
2022-08-05T05:53:21.436Z,18.70
2022-08-05T05:55:51.941Z,20.05
2022-08-05T05:58:30.180Z,21.85
2022-08-05T06:01:12.356Z,20.40
2022-08-05T06:04:01.138Z,23.95
2022-08-05T06:06:31.453Z,23.38
2022-08-05T06:09:00.528Z,23.23
2022-08-05T06:11:29.090Z,25.85
2022-08-05T06:13:56.920Z,22.88
2022-08-05T06:16:30.123Z,23.02
2022-08-05T06:19:01.766Z,21.85
2022-08-05T06:21:36.482Z,24.27
2022-08-05T06:24:07.703Z,23.13
2022-08-05T06:26:51.600Z,23.95
2022-08-05T06:29:25.185Z,23.38
2022-08-05T06:32:24.792Z,25.80
2022-08-05T06:34:58.336Z,25.27
2022-08-05T06:37:56.868Z,38.05
2022-08-05T06:40:18.287Z,33.88
2022-08-05T06:42:51.758Z,25.48
2022-08-05T06:45:44.020Z,23.08
2022-08-05T06:48:37.133Z,23.98
2022-08-05T06:50:56.623Z,24.00
2022-08-05T06:53:28.245Z,22.27
2022-08-05T06:55:58.773Z,21.15
2022-08-05T06:58:35.368Z,21.73
2022-08-05T07:01:06.179Z,22.98
2022-08-05T07:03:34.260Z,24.75
2022-08-05T07:06:06.178Z,22.27
2022-08-05T07:08:43.154Z,19.80
2022-08-05T07:11:16.251Z,18.90
2022-08-05T07:14:02.666Z,17.98
2022-08-05T07:17:59.112Z,17.45
2022-08-05T07:20:16.420Z,17.45
2022-08-05T07:22:28.875Z,19.25
2022-08-05T07:25:21.759Z,17.52
2022-08-05T07:27:58.398Z,20.52
2022-08-05T07:30:38.979Z,24.10
2022-08-05T07:33:16.443Z,23.77
2022-08-05T07:36:03.727Z,22.38
2022-08-05T07:38:43.694Z,23.20
2022-08-05T07:42:13.252Z,24.23
2022-08-05T07:44:14.166Z,25.35
2022-08-05T07:46:49.368Z,24.45
2022-08-05T07:49:18.915Z,28.90
2022-08-05T07:51:54.038Z,28.02
2022-08-05T07:54:31.430Z,28.88
2022-08-05T07:57:22.667Z,28.42
2022-08-05T07:59:52.187Z,30.55
2022-08-05T08:02:26.804Z,30.13
2022-08-05T08:04:59.472Z,27.83
2022-08-05T08:07:28.766Z,25.38
2022-08-05T08:09:56.330Z,24.75
2022-08-05T08:12:35.310Z,23.38
2022-08-05T08:15:15.668Z,23.15
2022-08-05T08:17:50.797Z,26.58
2022-08-05T08:20:44.256Z,28.70
2022-08-05T08:24:02.092Z,29.77
2022-08-05T08:26:02.675Z,31.73
2022-08-05T08:28:36.205Z,30.70
2022-08-05T08:31:10.029Z,30.40
2022-08-05T08:33:43.669Z,31.30
2022-08-05T08:36:38.364Z,27.73
2022-08-05T08:38:58.462Z,27.55
2022-08-05T08:41:50.895Z,28.38
2022-08-05T08:45:18.029Z,25.92
2022-08-05T08:47:46.794Z,25.23
2022-08-05T08:50:07.691Z,25.02
2022-08-05T08:52:53.396Z,25.30
2022-08-05T08:56:02.462Z,26.23
2022-08-05T08:58:13.208Z,24.15
2022-08-05T09:00:42.532Z,23.77
2022-08-05T09:03:16.171Z,22.80
2022-08-05T09:06:07.826Z,22.17
2022-08-05T09:08:35.324Z,19.23
2022-08-05T09:11:08.715Z,17.88
2022-08-05T09:14:09.570Z,17.60
2022-08-05T09:16:27.532Z,14.65
2022-08-05T09:18:55.469Z,13.55
2022-08-05T09:22:18.455Z,12.95
2022-08-05T09:24:10.470Z,14.35
2022-08-05T09:26:37.821Z,12.27
2022-08-05T09:29:08.989Z,10.93
2022-08-05T09:32:39.082Z,11.15
2022-08-05T09:34:26.053Z,11.05
2022-08-05T09:36:59.146Z,10.13
2022-08-05T09:39:41.990Z,8.90
2022-08-05T09:42:22.956Z,8.60
2022-08-05T09:44:56.309Z,8.20
2022-08-05T09:47:36.544Z,8.43
2022-08-05T09:50:38.184Z,8.88
2022-08-05T09:53:07.027Z,7.53
2022-08-05T09:55:56.748Z,7.78
2022-08-05T09:58:24.970Z,9.05
2022-08-05T10:01:15.096Z,9.15
2022-08-05T10:03:59.634Z,8.65
2022-08-05T10:06:28.064Z,7.07
2022-08-05T10:08:56.811Z,7.05
2022-08-05T10:11:24.273Z,6.85
2022-08-05T10:13:58.739Z,6.63
2022-08-05T10:16:33.950Z,7.57
2022-08-05T10:19:08.451Z,7.63
2022-08-05T10:21:40.141Z,6.50
2022-08-05T10:24:13.793Z,6.60
2022-08-05T10:26:49.199Z,7.18
2022-08-05T10:30:05.718Z,7.20
2022-08-05T10:32:53.120Z,5.53
2022-08-05T10:35:00.921Z,6.07
2022-08-05T10:37:44.391Z,5.78
2022-08-05T10:40:40.490Z,4.88
2022-08-05T10:43:38.152Z,6.35
2022-08-05T10:46:08.449Z,5.53
2022-08-05T10:48:56.481Z,5.53
2022-08-05T10:51:28.472Z,4.95
2022-08-05T10:54:00.810Z,5.82
2022-08-05T10:56:31.137Z,5.18
2022-08-05T10:58:58.307Z,4.43
2022-08-05T11:01:54.293Z,4.30
2022-08-05T11:04:26.374Z,4.03
2022-08-05T11:07:04.705Z,3.95
2022-08-05T11:09:46.273Z,3.20
2022-08-05T11:12:27.123Z,2.75
2022-08-05T11:16:00.920Z,3.28
2022-08-05T11:18:34.319Z,3.30
2022-08-05T11:21:11.784Z,2.38
2022-08-05T11:24:03.291Z,3.00
2022-08-05T11:26:43.353Z,3.38
2022-08-05T11:29:34.709Z,3.25
2022-08-05T11:32:31.485Z,3.50
2022-08-05T11:34:58.784Z,3.33
2022-08-05T11:38:28.626Z,3.45
2022-08-05T11:41:14.104Z,2.85
2022-08-05T11:44:05.569Z,2.53
2022-08-05T11:46:58.754Z,2.88
2022-08-05T11:49:34.074Z,2.63
2022-08-05T11:52:08.338Z,2.40
2022-08-05T11:54:40.416Z,2.50
2022-08-05T11:57:39.359Z,2.33
2022-08-05T11:59:56.445Z,2.30
2022-08-05T12:02:31.342Z,2.20
2022-08-05T12:05:07.728Z,2.28
2022-08-05T12:08:08.029Z,2.38
2022-08-05T12:10:43.508Z,1.92
2022-08-05T12:13:27.687Z,2.20
2022-08-05T12:16:14.242Z,2.42
2022-08-05T12:18:48.994Z,2.55
2022-08-05T12:21:26.853Z,2.03
2022-08-05T12:24:11.714Z,2.20
2022-08-05T12:26:44.369Z,2.15
2022-08-05T12:29:22.940Z,2.50
2022-08-05T12:31:55.668Z,2.40
2022-08-05T12:34:29.544Z,2.28
2022-08-05T12:37:07.427Z,2.20
2022-08-05T12:39:38.537Z,2.25
2022-08-05T12:42:16.509Z,2.15
2022-08-05T12:44:44.897Z,2.40
2022-08-05T12:47:17.070Z,2.50
2022-08-05T12:50:04.747Z,2.30
2022-08-05T12:52:39.702Z,3.50
2022-08-05T12:55:25.598Z,2.67
2022-08-05T12:58:49.932Z,2.33
2022-08-05T13:02:01.798Z,2.92
2022-08-05T13:03:42.975Z,3.25
2022-08-05T13:06:16.041Z,2.80
2022-08-05T13:08:46.079Z,3.60
2022-08-05T13:12:01.696Z,3.15
2022-08-05T13:14:36.503Z,3.20
2022-08-05T13:17:10.293Z,8.18
2022-08-05T13:19:40.475Z,4.68
2022-08-05T13:22:28.019Z,3.70
2022-08-05T13:25:00.968Z,3.35
2022-08-05T13:27:39.536Z,3.53
2022-08-05T13:30:34.787Z,4.65
2022-08-05T13:33:01.162Z,3.53
2022-08-05T13:35:42.716Z,3.67
2022-08-05T13:38:20.063Z,3.55
2022-08-05T13:40:59.142Z,3.63
2022-08-05T13:43:45.377Z,3.75
2022-08-05T13:46:16.201Z,3.90
2022-08-05T13:48:58.742Z,3.60
2022-08-05T13:51:40.446Z,3.95
2022-08-05T13:54:15.141Z,3.80
2022-08-05T13:56:45.153Z,3.85
2022-08-05T13:59:23.728Z,3.00
2022-08-05T14:01:58.888Z,3.33
2022-08-05T14:04:51.318Z,2.95
2022-08-05T14:07:26.160Z,3.30
2022-08-05T14:10:12.957Z,3.50
2022-08-05T14:12:42.900Z,4.47
2022-08-05T14:16:06.193Z,5.38
2022-08-05T14:18:00.802Z,3.25
2022-08-05T14:20:31.901Z,3.28
2022-08-05T14:23:00.213Z,3.30
2022-08-05T14:25:30.108Z,2.83
2022-08-05T14:27:58.421Z,2.80
2022-08-05T14:30:27.711Z,2.60
2022-08-05T14:32:56.632Z,2.40
2022-08-05T14:35:50.517Z,2.70
2022-08-05T14:38:32.168Z,2.70
2022-08-05T14:40:59.652Z,2.67
2022-08-05T14:44:01.492Z,2.97
2022-08-05T14:46:14.071Z,2.13
2022-08-05T14:48:41.424Z,1.83
2022-08-05T14:51:08.893Z,1.33
2022-08-05T14:53:44.072Z,1.40
2022-08-05T14:56:13.268Z,1.60
2022-08-05T14:58:47.809Z,1.02
2022-08-05T15:01:24.343Z,1.50
2022-08-05T15:04:11.481Z,1.02
2022-08-05T15:06:40.467Z,1.20
2022-08-05T15:09:07.843Z,1.17
2022-08-05T15:11:51.938Z,1.13
2022-08-05T15:14:34.854Z,0.80
2022-08-05T15:17:09.759Z,1.13
2022-08-05T15:19:48.977Z,1.17
2022-08-05T15:22:16.599Z,0.95
2022-08-05T15:24:44.751Z,1.25
2022-08-05T15:27:11.966Z,1.30
2022-08-05T15:29:41.783Z,1.40
2022-08-05T15:32:09.543Z,1.40
2022-08-05T15:34:36.782Z,1.55
2022-08-05T15:37:07.008Z,1.63
2022-08-05T15:40:59.936Z,1.25
2022-08-05T15:42:55.733Z,1.23
2022-08-05T15:45:18.681Z,0.95
2022-08-05T15:47:50.334Z,1.30
2022-08-05T15:50:21.615Z,1.60
2022-08-05T15:52:55.284Z,2.03
2022-08-05T15:55:25.028Z,1.70
2022-08-05T15:58:16.834Z,2.08
2022-08-05T16:00:50.773Z,1.88
2022-08-05T16:03:32.837Z,1.38
2022-08-05T16:06:02.265Z,1.27
2022-08-05T16:08:30.667Z,1.38
2022-08-05T16:10:58.790Z,1.63
2022-08-05T16:13:34.290Z,1.40
2022-08-05T16:16:03.849Z,1.60
2022-08-05T16:18:33.027Z,1.30
2022-08-05T16:21:04.989Z,1.60
2022-08-05T16:23:54.635Z,1.25
2022-08-05T16:26:26.468Z,1.40
2022-08-05T16:28:54.721Z,1.40
2022-08-05T16:31:22.568Z,1.60
2022-08-05T16:33:52.110Z,1.55
2022-08-05T16:36:23.914Z,1.50
2022-08-05T16:38:54.692Z,2.13
2022-08-05T16:42:27.733Z,1.52
2022-08-05T16:44:12.063Z,1.45
2022-08-05T16:46:41.371Z,1.45
2022-08-05T16:49:23.446Z,1.38
2022-08-05T16:51:54.738Z,1.58
2022-08-05T16:54:27.519Z,1.40
2022-08-05T16:56:57.687Z,1.27
2022-08-05T16:59:25.411Z,1.17
2022-08-05T17:01:55.919Z,1.13
2022-08-05T17:04:26.409Z,1.10
2022-08-05T17:06:55.577Z,1.05
2022-08-05T17:09:24.231Z,1.00
2022-08-05T17:11:59.821Z,1.10
2022-08-05T17:14:36.889Z,1.02
2022-08-05T17:17:14.531Z,0.93
2022-08-05T17:19:45.501Z,0.95
2022-08-05T17:22:24.918Z,1.13
2022-08-05T17:24:57.210Z,0.90
2022-08-05T17:27:33.995Z,0.75
2022-08-05T17:30:04.319Z,0.93
2022-08-05T17:32:35.383Z,0.63
2022-08-05T17:35:02.928Z,0.60
2022-08-05T17:37:40.194Z,0.50
2022-08-05T17:40:12.750Z,0.75
2022-08-05T17:42:49.674Z,0.80
2022-08-05T17:45:20.324Z,0.85
2022-08-05T17:47:54.008Z,0.80
2022-08-05T17:50:30.347Z,1.40
2022-08-05T17:53:00.044Z,0.80
2022-08-05T17:55:37.100Z,0.68
2022-08-05T17:58:09.842Z,0.68
2022-08-05T18:00:44.990Z,0.73
2022-08-05T18:03:33.246Z,1.00
2022-08-05T18:06:12.045Z,0.95
2022-08-05T18:08:44.975Z,0.70
2022-08-05T18:11:24.149Z,0.70
2022-08-05T18:14:07.180Z,1.02
2022-08-05T18:16:46.761Z,0.88
2022-08-05T18:19:22.806Z,1.17
2022-08-05T18:22:08.420Z,1.05
2022-08-05T18:24:39.599Z,0.90
2022-08-05T18:27:12.809Z,0.80
2022-08-05T18:29:53.635Z,0.65
2022-08-05T18:32:28.283Z,0.70
2022-08-05T18:34:57.591Z,0.70
2022-08-05T18:37:34.619Z,0.65
2022-08-05T18:41:50.792Z,1.42
2022-08-05T18:42:58.809Z,1.35
2022-08-05T18:45:40.902Z,0.93
2022-08-05T18:48:11.329Z,0.63
2022-08-05T18:52:03.147Z,0.95
2022-08-05T18:53:45.975Z,0.85
2022-08-05T18:56:17.897Z,0.60
2022-08-05T18:58:54.971Z,0.80
2022-08-05T19:01:47.238Z,0.60
2022-08-05T19:04:24.120Z,0.93
2022-08-05T19:06:51.877Z,0.80
2022-08-05T19:09:21.327Z,0.70
2022-08-05T19:11:59.186Z,0.57
2022-08-05T19:14:38.104Z,0.50
2022-08-05T19:17:17.136Z,0.70
2022-08-05T19:19:48.477Z,1.00
2022-08-05T19:22:17.033Z,0.70
2022-08-05T19:24:56.153Z,0.77
2022-08-05T19:27:30.233Z,0.85
2022-08-05T19:29:58.465Z,0.80
2022-08-05T19:32:26.532Z,0.85
2022-08-05T19:34:56.300Z,0.77
2022-08-05T19:37:29.748Z,0.90
2022-08-05T19:40:02.682Z,0.90
2022-08-05T19:42:36.500Z,1.20
2022-08-05T19:45:07.647Z,0.80
2022-08-05T19:47:37.693Z,1.35
2022-08-05T19:50:07.529Z,0.70
2022-08-05T19:52:35.879Z,1.13
2022-08-05T19:55:07.114Z,0.70
2022-08-05T19:58:19.749Z,1.00
2022-08-05T20:00:38.396Z,1.08
2022-08-05T20:03:08.965Z,0.75
2022-08-05T20:05:43.386Z,0.80
2022-08-05T20:08:18.038Z,0.70
2022-08-05T20:10:45.326Z,0.98
2022-08-05T20:13:17.972Z,0.70
2022-08-05T20:15:57.556Z,1.00
2022-08-05T20:18:34.041Z,1.10
2022-08-05T20:21:06.784Z,1.00
2022-08-05T20:23:39.432Z,1.00
2022-08-05T20:26:17.715Z,1.10
2022-08-05T20:28:48.338Z,0.95
2022-08-05T20:31:16.913Z,0.80
2022-08-05T20:33:44.961Z,1.00
2022-08-05T20:36:14.288Z,0.88
2022-08-05T20:38:54.546Z,0.93
2022-08-05T20:41:27.526Z,0.70
2022-08-05T20:44:19.300Z,0.93
2022-08-05T20:47:00.281Z,0.95
2022-08-05T20:49:27.768Z,1.00
2022-08-05T20:51:57.441Z,0.90
2022-08-05T20:54:26.951Z,1.30
2022-08-05T20:57:15.161Z,1.50
2022-08-05T21:00:20.723Z,0.80
2022-08-05T21:02:55.394Z,1.30
2022-08-05T21:05:24.726Z,0.88
2022-08-05T21:07:52.555Z,1.17
2022-08-05T21:10:20.597Z,1.10
2022-08-05T21:13:02.717Z,0.77
2022-08-05T21:15:36.594Z,2.05
2022-08-05T21:18:04.571Z,1.15
2022-08-05T21:20:33.149Z,1.50
2022-08-05T21:23:01.362Z,1.08
2022-08-05T21:25:33.708Z,1.25
2022-08-05T21:28:03.043Z,1.08
2022-08-05T21:30:31.487Z,0.70
2022-08-05T21:32:58.753Z,0.90
2022-08-05T21:35:29.839Z,1.13
2022-08-05T21:38:11.251Z,0.98
2022-08-05T21:40:41.483Z,1.10
2022-08-05T21:43:17.885Z,1.80
2022-08-05T21:45:57.963Z,1.33
2022-08-05T21:48:28.727Z,1.15
2022-08-05T21:50:56.347Z,1.10
2022-08-05T21:53:27.528Z,1.40
2022-08-05T21:56:09.738Z,0.80
2022-08-05T21:58:56.978Z,1.90
2022-08-05T22:01:26.105Z,1.02
2022-08-05T22:03:53.988Z,1.10
2022-08-05T22:06:35.199Z,1.00
2022-08-05T22:09:13.971Z,0.82
2022-08-05T22:11:46.952Z,1.02
2022-08-05T22:14:33.227Z,1.23
2022-08-05T22:17:05.230Z,0.73
2022-08-05T22:20:03.397Z,1.10
2022-08-05T22:22:26.908Z,1.13
2022-08-05T22:25:23.925Z,1.08
2022-08-05T22:28:09.463Z,1.17
2022-08-05T22:30:55.553Z,0.70
2022-08-05T22:33:57.881Z,1.08
2022-08-05T22:36:14.615Z,0.85
2022-08-05T22:38:48.203Z,1.00
2022-08-05T22:42:05.727Z,0.88
2022-08-05T22:44:06.038Z,0.82
2022-08-05T22:46:33.372Z,2.55
2022-08-05T22:49:23.394Z,1.20
2022-08-05T22:52:05.049Z,0.90
2022-08-05T22:54:36.835Z,1.05
2022-08-05T22:57:07.000Z,1.33
2022-08-05T22:59:43.622Z,0.90
2022-08-05T23:02:17.492Z,1.02
2022-08-05T23:04:51.559Z,1.10
2022-08-05T23:07:22.150Z,0.98
2022-08-05T23:09:57.759Z,1.25
2022-08-05T23:12:33.329Z,1.00
2022-08-05T23:15:08.587Z,1.17
2022-08-05T23:17:37.878Z,1.02
2022-08-05T23:20:24.571Z,1.05
2022-08-05T23:22:56.032Z,1.45
2022-08-05T23:25:51.726Z,1.45
2022-08-05T23:28:12.466Z,1.15
2022-08-05T23:30:43.961Z,1.20
2022-08-05T23:33:26.404Z,0.80
2022-08-05T23:36:10.140Z,1.13
2022-08-05T23:38:38.221Z,1.10
2022-08-05T23:41:05.745Z,0.90
2022-08-05T23:43:37.305Z,1.02
2022-08-05T23:46:22.081Z,1.25
2022-08-05T23:48:59.795Z,1.10
2022-08-05T23:51:55.347Z,1.10
2022-08-05T23:54:30.475Z,1.17
2022-08-05T23:57:03.912Z,0.93
